^^
Datos históricos de la estación: Murcia-Puente Tocinos
Diario Informe para Mayo 18, 2019 Unidades:  Ambas    Inglés   Métrico
Diario Semanal Mensual Anual Configurable
  Máximo: Mínimo: Media:
Temperatura: 74.7 °F /  23.7 °C 59.7 °F /  15.4 °C 67.5 °F /  19.7 °C
Punto de rocio: 57 °F /  13.9 °C 36.9 °F /  2.7 °C 44.8 °F /  7.1 °C
Humedad: 80% 26% 46%
Velocidad viento: 9.7mph /  15.6km/h - 4.4mph /  7.1km/h
Racha viento: 18.4mph /  29.6km/h - -
Viento- - SSE
Presión: 29.8 in /  1009.2 hPa 29.7 in /  1005.1 hPa -
Precipitación: 0 in /  0.0 mm    
Historical Graphs
 
 
Tabla de datos para Mayo 18, 2019
Hora Temperatura Punto de rocio Presión Viento Velocidad viento Racha viento Humedad Intensidad lluvia(por hora) Nubes
00:04 69.1 °F /  20.6 °C 39.6 °F /  4.2 °C 29.8in /  1007.9hPa ENE 2.4mph /  3.9km/h 3.5mph /  5.6km/h 34% 0in /  0.0mm CLR
00:09 68.9 °F /  20.5 °C 40.1 °F /  4.5 °C 29.8in /  1007.9hPa ENE 2.4mph /  3.9km/h 3.1mph /  5.0km/h 35% 0in /  0.0mm CLR
00:14 68.9 °F /  20.5 °C 39.4 °F /  4.1 °C 29.8in /  1007.9hPa NE 2.4mph /  3.9km/h 2.4mph /  3.9km/h 34% 0in /  0.0mm CLR
00:19 69.1 °F /  20.6 °C 39.6 °F /  4.2 °C 29.8in /  1007.9hPa NE 2mph /  3.2km/h 2.3mph /  3.7km/h 34% 0in /  0.0mm CLR
00:24 69.1 °F /  20.6 °C 40.3 °F /  4.6 °C 29.8in /  1007.9hPa NE 2mph /  3.2km/h 2.3mph /  3.7km/h 35% 0in /  0.0mm CLR
00:29 68.9 °F /  20.5 °C 40.8 °F /  4.9 °C 29.8in /  1007.9hPa Calm     36% 0in /  0.0mm CLR
00:34 68.7 °F /  20.4 °C 39.9 °F /  4.4 °C 29.8in /  1008.0hPa Calm     35% 0in /  0.0mm CLR
00:39 68.7 °F /  20.4 °C 40.6 °F /  4.8 °C 29.8in /  1008.0hPa Calm   1.2mph /  1.9km/h 36% 0in /  0.0mm CLR
00:44 68.5 °F /  20.3 °C 40.5 °F /  4.7 °C 29.8in /  1008.0hPa Calm   2.9mph /  4.7km/h 36% 0in /  0.0mm CLR
00:49 68.5 °F /  20.3 °C 39.7 °F /  4.3 °C 29.8in /  1007.9hPa NE 1.4mph /  2.3km/h 3.5mph /  5.6km/h 35% 0in /  0.0mm CLR
00:54 68.5 °F /  20.3 °C 39.7 °F /  4.3 °C 29.8in /  1007.9hPa NE 1.4mph /  2.3km/h 3.5mph /  5.6km/h 35% 0in /  0.0mm CLR
00:59 68.5 °F /  20.3 °C 39.7 °F /  4.3 °C 29.8in /  1007.9hPa NE 2mph /  3.2km/h 2.4mph /  3.9km/h 35% 0in /  0.0mm CLR
01:04 68.7 °F /  20.4 °C 40.6 °F /  4.8 °C 29.8in /  1008.0hPa NE 2mph /  3.2km/h 2.3mph /  3.7km/h 36% 0in /  0.0mm CLR
01:09 68.7 °F /  20.4 °C 40.6 °F /  4.8 °C 29.8in /  1008.0hPa NE 1.8mph /  2.9km/h   36% 0in /  0.0mm CLR
01:14 68.7 °F /  20.4 °C 39.9 °F /  4.4 °C 29.8in /  1008.0hPa NE 1.8mph /  2.9km/h 2.3mph /  3.7km/h 35% 0in /  0.0mm CLR
01:19 68.7 °F /  20.4 °C 40.6 °F /  4.8 °C 29.8in /  1007.9hPa NE 1.4mph /  2.3km/h 2.3mph /  3.7km/h 36% 0in /  0.0mm CLR
01:24 68.7 °F /  20.4 °C 40.6 °F /  4.8 °C 29.8in /  1007.9hPa NE 1.4mph /  2.3km/h 2.3mph /  3.7km/h 36% 0in /  0.0mm CLR
01:29 68.7 °F /  20.4 °C 41.4 °F /  5.2 °C 29.8in /  1007.9hPa NE 1.4mph /  2.3km/h 2.3mph /  3.7km/h 37% 0in /  0.0mm CLR
01:34 68.5 °F /  20.3 °C 41.2 °F /  5.1 °C 29.8in /  1007.8hPa WSW 1.4mph /  2.3km/h 4.3mph /  6.9km/h 37% 0in /  0.0mm CLR
01:39 68.4 °F /  20.2 °C 41.2 °F /  5.1 °C 29.8in /  1007.8hPa WNW 2.4mph /  3.9km/h 3.5mph /  5.6km/h 37% 0in /  0.0mm CLR
01:44 68.4 °F /  20.2 °C 41.2 °F /  5.1 °C 29.8in /  1007.8hPa WNW 2.4mph /  3.9km/h 2.3mph /  3.7km/h 37% 0in /  0.0mm CLR
01:49 68.2 °F /  20.1 °C 41.5 °F /  5.3 °C 29.8in /  1007.8hPa WNW 1.4mph /  2.3km/h   38% 0in /  0.0mm CLR
01:54 67.8 °F /  19.9 °C 42.6 °F /  5.9 °C 29.8in /  1007.8hPa East 1.4mph /  2.3km/h 4.6mph /  7.4km/h 40% 0in /  0.0mm CLR
01:59 67.3 °F /  19.6 °C 42.8 °F /  6.0 °C 29.8in /  1007.8hPa East 1.8mph /  2.9km/h 2.3mph /  3.7km/h 41% 0in /  0.0mm CLR
02:04 66.7 °F /  19.3 °C 43 °F /  6.1 °C 29.8in /  1007.8hPa East 1.8mph /  2.9km/h 2.3mph /  3.7km/h 42% 0in /  0.0mm CLR
02:09 66.6 °F /  19.2 °C 42.6 °F /  5.9 °C 29.8in /  1007.8hPa Calm   2.3mph /  3.7km/h 42% 0in /  0.0mm CLR
02:14 66.4 °F /  19.1 °C 42.6 °F /  5.9 °C 29.8in /  1007.8hPa Calm   2.3mph /  3.7km/h 42% 0in /  0.0mm CLR
02:19 66.4 °F /  19.1 °C 43.2 °F /  6.2 °C 29.8in /  1007.7hPa Calm     43% 0in /  0.0mm CLR
02:24 66.4 °F /  19.1 °C 42.6 °F /  5.9 °C 29.8in /  1007.7hPa Calm   3.1mph /  5.0km/h 42% 0in /  0.0mm CLR
02:29 66.6 °F /  19.2 °C 42.1 °F /  5.6 °C 29.8in /  1007.7hPa SSE 1.8mph /  2.9km/h 6.9mph /  11.1km/h 41% 0in /  0.0mm CLR
02:34 65.7 °F /  18.7 °C 43.2 °F /  6.2 °C 29.8in /  1007.6hPa SSE 1.8mph /  2.9km/h 8.1mph /  13.0km/h 44% 0in /  0.0mm CLR
02:39 64.9 °F /  18.3 °C 41.9 °F /  5.5 °C 29.8in /  1007.6hPa South 5.9mph /  9.5km/h 5.8mph /  9.3km/h 43% 0in /  0.0mm CLR
02:44 64.9 °F /  18.3 °C 41.4 °F /  5.2 °C 29.8in /  1007.6hPa South 5.9mph /  9.5km/h 5.8mph /  9.3km/h 42% 0in /  0.0mm CLR
02:49 64.9 °F /  18.3 °C 41.4 °F /  5.2 °C 29.7in /  1007.3hPa SSW 4.3mph /  6.9km/h 5.8mph /  9.3km/h 42% 0in /  0.0mm CLR
02:54 65.1 °F /  18.4 °C 41.4 °F /  5.2 °C 29.7in /  1007.3hPa SW 4.3mph /  6.9km/h 4.6mph /  7.4km/h 42% 0in /  0.0mm CLR
02:59 65.1 °F /  18.4 °C 40.8 °F /  4.9 °C 29.7in /  1007.3hPa WSW 3.1mph /  5.0km/h 4.6mph /  7.4km/h 41% 0in /  0.0mm CLR
03:04 65.3 °F /  18.5 °C 41 °F /  5.0 °C 29.7in /  1007.3hPa West 3.1mph /  5.0km/h 4.6mph /  7.4km/h 41% 0in /  0.0mm CLR
03:09 65.5 °F /  18.6 °C 41.2 °F /  5.1 °C 29.7in /  1007.3hPa West 3.6mph /  5.8km/h 4.6mph /  7.4km/h 41% 0in /  0.0mm CLR
03:14 65.3 °F /  18.5 °C 41 °F /  5.0 °C 29.7in /  1007.3hPa ESE 3.6mph /  5.8km/h 4.7mph /  7.6km/h 41% 0in /  0.0mm CLR
03:19 64.8 °F /  18.2 °C 42.3 °F /  5.7 °C 29.7in /  1007.3hPa SE 2.9mph /  4.7km/h 5.8mph /  9.3km/h 44% 0in /  0.0mm CLR
03:24 64.2 °F /  17.9 °C 41.7 °F /  5.4 °C 29.7in /  1007.3hPa SSE 2.9mph /  4.7km/h 4.6mph /  7.4km/h 44% 0in /  0.0mm CLR
03:29 64 °F /  17.8 °C 41.7 °F /  5.4 °C 29.7in /  1007.3hPa SSE 3.1mph /  5.0km/h 4.6mph /  7.4km/h 44% 0in /  0.0mm CLR
03:34 64 °F /  17.8 °C 42.3 °F /  5.7 °C 29.7in /  1007.0hPa SSW 3.1mph /  5.0km/h 4.6mph /  7.4km/h 45% 0in /  0.0mm CLR
03:39 64 °F /  17.8 °C 41.7 °F /  5.4 °C 29.7in /  1007.0hPa SSW 3.1mph /  5.0km/h 4.6mph /  7.4km/h 44% 0in /  0.0mm CLR
03:44 64 °F /  17.8 °C 41.7 °F /  5.4 °C 29.7in /  1007.0hPa SSW 3.1mph /  5.0km/h 4.6mph /  7.4km/h 44% 0in /  0.0mm CLR
03:49 64 °F /  17.8 °C 41.7 °F /  5.4 °C 29.7in /  1006.9hPa SSW 2.4mph /  3.9km/h 2.9mph /  4.7km/h 44% 0in /  0.0mm CLR
03:54 64 °F /  17.8 °C 41.7 °F /  5.4 °C 29.7in /  1006.9hPa SSE 2.4mph /  3.9km/h 5.2mph /  8.4km/h 44% 0in /  0.0mm CLR
03:59 63.9 °F /  17.7 °C 40.8 °F /  4.9 °C 29.7in /  1006.9hPa SW 3.6mph /  5.8km/h 8.1mph /  13.0km/h 43% 0in /  0.0mm CLR
04:04 64 °F /  17.8 °C 40.5 °F /  4.7 °C 29.7in /  1006.9hPa SW 3.6mph /  5.8km/h 4.6mph /  7.4km/h 42% 0in /  0.0mm CLR
04:09 64 °F /  17.8 °C 40.5 °F /  4.7 °C 29.7in /  1006.9hPa SSW 4mph /  6.4km/h 4.6mph /  7.4km/h 42% 0in /  0.0mm CLR
04:14 64 °F /  17.8 °C 39.7 °F /  4.3 °C 29.7in /  1006.9hPa SSW 4mph /  6.4km/h 2.3mph /  3.7km/h 41% 0in /  0.0mm CLR
04:19 64.2 °F /  17.9 °C 39.9 °F /  4.4 °C 29.7in /  1006.7hPa NW 2.4mph /  3.9km/h 4.6mph /  7.4km/h 41% 0in /  0.0mm CLR
04:24 64 °F /  17.8 °C 41.2 °F /  5.1 °C 29.7in /  1006.7hPa NW 2.4mph /  3.9km/h   43% 0in /  0.0mm CLR
04:29 63.9 °F /  17.7 °C 42.1 °F /  5.6 °C 29.7in /  1006.7hPa SE 1.4mph /  2.3km/h 4.7mph /  7.6km/h 45% 0in /  0.0mm CLR
04:34 63 °F /  17.2 °C 42.4 °F /  5.8 °C 29.7in /  1006.6hPa SE 1.4mph /  2.3km/h 4.7mph /  7.6km/h 47% 0in /  0.0mm CLR
04:39 62.1 °F /  16.7 °C 42.1 °F /  5.6 °C 29.7in /  1006.6hPa South 3.6mph /  5.8km/h 5.9mph /  9.5km/h 48% 0in /  0.0mm CLR
04:44 61.5 °F /  16.4 °C 41.5 °F /  5.3 °C 29.7in /  1006.6hPa SSE 3.6mph /  5.8km/h 5.8mph /  9.3km/h 48% 0in /  0.0mm CLR
04:49 61.5 °F /  16.4 °C 41.2 °F /  5.1 °C 29.7in /  1006.5hPa SSE 4mph /  6.4km/h 4.7mph /  7.6km/h 47% 0in /  0.0mm CLR
04:54 62.1 °F /  16.7 °C 41.5 °F /  5.3 °C 29.7in /  1006.5hPa South 4mph /  6.4km/h 4.6mph /  7.4km/h 47% 0in /  0.0mm CLR
04:59 62.1 °F /  16.7 °C 41 °F /  5.0 °C 29.7in /  1006.5hPa South 2.9mph /  4.7km/h 3.5mph /  5.6km/h 46% 0in /  0.0mm CLR
05:04 62.2 °F /  16.8 °C 41.7 °F /  5.4 °C 29.7in /  1006.6hPa South 2.9mph /  4.7km/h 3.5mph /  5.6km/h 47% 0in /  0.0mm CLR
05:09 62.1 °F /  16.7 °C 41.5 °F /  5.3 °C 29.7in /  1006.6hPa South 2.4mph /  3.9km/h 2.3mph /  3.7km/h 47% 0in /  0.0mm CLR
05:14 62.1 °F /  16.7 °C 42.1 °F /  5.6 °C 29.7in /  1006.6hPa South 2.4mph /  3.9km/h   48% 0in /  0.0mm CLR
05:19 62.1 °F /  16.7 °C 41.5 °F /  5.3 °C 29.7in /  1006.5hPa Calm   1.8mph /  2.9km/h 47% 0in /  0.0mm CLR
05:24 62.1 °F /  16.7 °C 41.5 °F /  5.3 °C 29.7in /  1006.5hPa Calm   2.3mph /  3.7km/h 47% 0in /  0.0mm CLR
05:29 62.4 °F /  16.9 °C 41.9 °F /  5.5 °C 29.7in /  1006.5hPa South 1.8mph /  2.9km/h 2.3mph /  3.7km/h 47% 0in /  0.0mm CLR
05:34 62.4 °F /  16.9 °C 42.4 °F /  5.8 °C 29.7in /  1006.5hPa South 1.8mph /  2.9km/h   48% 0in /  0.0mm CLR
05:39 62.4 °F /  16.9 °C 42.4 °F /  5.8 °C 29.7in /  1006.5hPa South 1.4mph /  2.3km/h 2.3mph /  3.7km/h 48% 0in /  0.0mm CLR
05:44 62.4 °F /  16.9 °C 42.4 °F /  5.8 °C 29.7in /  1006.5hPa South 1.4mph /  2.3km/h   48% 0in /  0.0mm CLR
05:49 62.2 °F /  16.8 °C 41.2 °F /  5.1 °C 29.7in /  1006.3hPa Calm     46% 0in /  0.0mm CLR
05:54 62.2 °F /  16.8 °C 42.3 °F /  5.7 °C 29.7in /  1006.3hPa Calm   2.3mph /  3.7km/h 48% 0in /  0.0mm CLR
05:59 62.1 °F /  16.7 °C 42.1 °F /  5.6 °C 29.7in /  1006.3hPa WSW 1.4mph /  2.3km/h 2.3mph /  3.7km/h 48% 0in /  0.0mm CLR
06:04 61.9 °F /  16.6 °C 42.1 °F /  5.6 °C 29.7in /  1006.3hPa WSW 1.4mph /  2.3km/h 2.3mph /  3.7km/h 48% 0in /  0.0mm CLR
06:09 61.5 °F /  16.4 °C 42.3 °F /  5.7 °C 29.7in /  1006.3hPa WSW 1.4mph /  2.3km/h   49% 0in /  0.0mm CLR
06:14 61.5 °F /  16.4 °C 42.6 °F /  5.9 °C 29.7in /  1006.3hPa WSW 1.4mph /  2.3km/h   50% 0in /  0.0mm CLR
06:19 61.3 °F /  16.3 °C 42.4 °F /  5.8 °C 29.7in /  1006.2hPa Calm   2.4mph /  3.9km/h 50% 0in /  0.0mm CLR
06:24 61.2 °F /  16.2 °C 41.7 °F /  5.4 °C 29.7in /  1006.2hPa Calm     49% 0in /  0.0mm CLR
06:29 61.2 °F /  16.2 °C 41.4 °F /  5.2 °C 29.7in /  1006.2hPa WSW 1.4mph /  2.3km/h 2.3mph /  3.7km/h 48% 0in /  0.0mm CLR
06:34 61 °F /  16.1 °C 41.7 °F /  5.4 °C 29.7in /  1006.2hPa WSW 1.4mph /  2.3km/h 1.8mph /  2.9km/h 49% 0in /  0.0mm CLR
06:39 60.8 °F /  16.0 °C 41.5 °F /  5.3 °C 29.7in /  1006.2hPa Calm     49% 0in /  0.0mm CLR
06:44 60.8 °F /  16.0 °C 42.4 °F /  5.8 °C 29.7in /  1006.2hPa Calm   2.3mph /  3.7km/h 51% 0in /  0.0mm CLR
06:49 60.6 °F /  15.9 °C 42.4 °F /  5.8 °C 29.7in /  1006.4hPa Calm   4.6mph /  7.4km/h 51% 0in /  0.0mm CLR
06:54 60.3 °F /  15.7 °C 42.1 °F /  5.6 °C 29.7in /  1006.4hPa Calm     51% 0in /  0.0mm CLR
06:59 60.1 °F /  15.6 °C 41.9 °F /  5.5 °C 29.7in /  1006.4hPa NNW 1.4mph /  2.3km/h 2.3mph /  3.7km/h 51% 0in /  0.0mm CLR
07:04 60.1 °F /  15.6 °C 41.4 °F /  5.2 °C 29.7in /  1006.5hPa East 1.4mph /  2.3km/h 4.6mph /  7.4km/h 50% 0in /  0.0mm CLR
07:09 59.9 °F /  15.5 °C 40.6 °F /  4.8 °C 29.7in /  1006.5hPa ESE 2mph /  3.2km/h 4.6mph /  7.4km/h 49% 0in /  0.0mm CLR
07:14 59.7 °F /  15.4 °C 40.5 °F /  4.7 °C 29.7in /  1006.5hPa SE 2mph /  3.2km/h 4.6mph /  7.4km/h 49% 0in /  0.0mm CLR
07:19 59.7 °F /  15.4 °C 41 °F /  5.0 °C 29.7in /  1006.6hPa SE 2.9mph /  4.7km/h 3.5mph /  5.6km/h 50% 0in /  0.0mm CLR
07:24 59.7 °F /  15.4 °C 41 °F /  5.0 °C 29.7in /  1006.6hPa SE 2.9mph /  4.7km/h   50% 0in /  0.0mm CLR
07:29 60.3 °F /  15.7 °C 41 °F /  5.0 °C 29.7in /  1006.6hPa South 1.4mph /  2.3km/h 4.6mph /  7.4km/h 49% 0in /  0.0mm CLR
07:34 60.6 °F /  15.9 °C 41.4 °F /  5.2 °C 29.7in /  1006.8hPa South 1.4mph /  2.3km/h 5.8mph /  9.3km/h 49% 0in /  0.0mm CLR
07:39 60.8 °F /  16.0 °C 42.1 °F /  5.6 °C 29.7in /  1006.8hPa SSW 3.1mph /  5.0km/h 4.6mph /  7.4km/h 50% 0in /  0.0mm CLR
07:44 61 °F /  16.1 °C 42.3 °F /  5.7 °C 29.7in /  1006.8hPa South 3.1mph /  5.0km/h 4.6mph /  7.4km/h 50% 0in /  0.0mm CLR
07:49 61.2 °F /  16.2 °C 42.4 °F /  5.8 °C 29.7in /  1006.9hPa South 2.9mph /  4.7km/h 3.5mph /  5.6km/h 50% 0in /  0.0mm CLR
07:54 61.3 °F /  16.3 °C 42.1 °F /  5.6 °C 29.7in /  1006.9hPa South 2.9mph /  4.7km/h 2.9mph /  4.7km/h 49% 0in /  0.0mm CLR
07:59 61.7 °F /  16.5 °C 43 °F /  6.1 °C 29.7in /  1006.9hPa SSE 2mph /  3.2km/h 3.5mph /  5.6km/h 50% 0in /  0.0mm CLR
08:04 62.1 °F /  16.7 °C 43.7 °F /  6.5 °C 29.7in /  1006.9hPa SSE 2mph /  3.2km/h 2.9mph /  4.7km/h 51% 0in /  0.0mm CLR
08:09 62.2 °F /  16.8 °C 44.4 °F /  6.9 °C 29.7in /  1006.9hPa SSE 1.8mph /  2.9km/h 1.4mph /  2.3km/h 52% 0in /  0.0mm CLR
08:14 62.4 °F /  16.9 °C 45.1 °F /  7.3 °C 29.7in /  1006.9hPa SSE 1.8mph /  2.9km/h 2.3mph /  3.7km/h 53% 0in /  0.0mm CLR
08:19 62.8 °F /  17.1 °C 45 °F /  7.2 °C 29.7in /  1006.8hPa NE 1.4mph /  2.3km/h 2.3mph /  3.7km/h 52% 0in /  0.0mm CLR
08:24 63 °F /  17.2 °C 44.1 °F /  6.7 °C 29.7in /  1006.8hPa NE 1.4mph /  2.3km/h 2.3mph /  3.7km/h 50% 0in /  0.0mm CLR
08:29 63 °F /  17.2 °C 44.1 °F /  6.7 °C 29.7in /  1006.8hPa NE 1.4mph /  2.3km/h   50% 0in /  0.0mm CLR
08:34 63 °F /  17.2 °C 44.1 °F /  6.7 °C 29.7in /  1006.8hPa NNE 1.4mph /  2.3km/h 3.5mph /  5.6km/h 50% 0in /  0.0mm CLR
08:39 63 °F /  17.2 °C 44.1 °F /  6.7 °C 29.7in /  1006.8hPa NW 1.4mph /  2.3km/h 3.5mph /  5.6km/h 50% 0in /  0.0mm CLR
08:44 63 °F /  17.2 °C 44.4 °F /  6.9 °C 29.7in /  1006.8hPa NW 1.4mph /  2.3km/h 4.6mph /  7.4km/h 51% 0in /  0.0mm CLR
08:49 63 °F /  17.2 °C 45.1 °F /  7.3 °C 29.7in /  1007.1hPa NW 2mph /  3.2km/h 2.3mph /  3.7km/h 52% 0in /  0.0mm CLR
08:54 63.1 °F /  17.3 °C 44.2 °F /  6.8 °C 29.7in /  1007.1hPa West 2mph /  3.2km/h 3.5mph /  5.6km/h 50% 0in /  0.0mm CLR
08:59 63.3 °F /  17.4 °C 43.3 °F /  6.3 °C 29.7in /  1007.1hPa NW 2.4mph /  3.9km/h 3.5mph /  5.6km/h 48% 0in /  0.0mm CLR
09:04 63.7 °F /  17.6 °C 41.9 °F /  5.5 °C 29.8in /  1007.4hPa West 2.4mph /  3.9km/h 4.6mph /  7.4km/h 45% 0in /  0.0mm CLR
09:09 64 °F /  17.8 °C 41.2 °F /  5.1 °C 29.8in /  1007.4hPa West 2.9mph /  4.7km/h 4.6mph /  7.4km/h 43% 0in /  0.0mm CLR
09:14 64.8 °F /  18.2 °C 39.9 °F /  4.4 °C 29.8in /  1007.4hPa South 2.9mph /  4.7km/h 5.8mph /  9.3km/h 40% 0in /  0.0mm CLR
09:19 65.1 °F /  18.4 °C 40.3 °F /  4.6 °C 29.8in /  1007.4hPa SE 3.6mph /  5.8km/h 4.6mph /  7.4km/h 40% 0in /  0.0mm CLR
09:24 65.8 °F /  18.8 °C 40.8 °F /  4.9 °C 29.8in /  1007.4hPa SE 3.6mph /  5.8km/h 4.7mph /  7.6km/h 40% 0in /  0.0mm CLR
09:29 66 °F /  18.9 °C 39.7 °F /  4.3 °C 29.8in /  1007.4hPa SSE 3.1mph /  5.0km/h 5.8mph /  9.3km/h 38% 0in /  0.0mm CLR
09:34 66.2 °F /  19.0 °C 40.5 °F /  4.7 °C 29.8in /  1007.5hPa SW 3.1mph /  5.0km/h 4.6mph /  7.4km/h 39% 0in /  0.0mm CLR
09:39 66.4 °F /  19.1 °C 39.9 °F /  4.4 °C 29.8in /  1007.5hPa WSW 3.1mph /  5.0km/h 4.6mph /  7.4km/h 38% 0in /  0.0mm CLR
09:44 66.7 °F /  19.3 °C 40.3 °F /  4.6 °C 29.8in /  1007.5hPa SW 3.1mph /  5.0km/h 4.6mph /  7.4km/h 38% 0in /  0.0mm CLR
09:49 66.9 °F /  19.4 °C 39.7 °F /  4.3 °C 29.7in /  1007.2hPa WSW 2.4mph /  3.9km/h 4.6mph /  7.4km/h 37% 0in /  0.0mm CLR
09:54 67.5 °F /  19.7 °C 41 °F /  5.0 °C 29.7in /  1007.2hPa WSW 2.4mph /  3.9km/h 2.9mph /  4.7km/h 38% 0in /  0.0mm CLR
09:59 67.8 °F /  19.9 °C 40.6 °F /  4.8 °C 29.7in /  1007.2hPa SW 2.4mph /  3.9km/h 4.6mph /  7.4km/h 37% 0in /  0.0mm CLR
10:04 68.2 °F /  20.1 °C 40.8 °F /  4.9 °C 29.7in /  1007.1hPa WSW 2.4mph /  3.9km/h 4.6mph /  7.4km/h 37% 0in /  0.0mm CLR
10:09 68.5 °F /  20.3 °C 40.5 °F /  4.7 °C 29.7in /  1007.1hPa WSW 1.8mph /  2.9km/h 4.6mph /  7.4km/h 36% 0in /  0.0mm CLR
10:14 68.9 °F /  20.5 °C 40.8 °F /  4.9 °C 29.7in /  1007.1hPa WSW 1.8mph /  2.9km/h 3.5mph /  5.6km/h 36% 0in /  0.0mm CLR
10:19 69.6 °F /  20.9 °C 40.6 °F /  4.8 °C 29.7in /  1007.0hPa SSW 2mph /  3.2km/h 5.2mph /  8.4km/h 35% 0in /  0.0mm CLR
10:24 70 °F /  21.1 °C 40.3 °F /  4.6 °C 29.7in /  1007.0hPa WNW 2mph /  3.2km/h 4.6mph /  7.4km/h 34% 0in /  0.0mm CLR
10:29 69.8 °F /  21.0 °C 40.3 °F /  4.6 °C 29.7in /  1007.0hPa West 3.1mph /  5.0km/h 8.1mph /  13.0km/h 34% 0in /  0.0mm CLR
10:34 70.2 °F /  21.2 °C 39.7 °F /  4.3 °C 29.7in /  1006.9hPa SW 3.1mph /  5.0km/h 8.7mph /  14.0km/h 33% 0in /  0.0mm CLR
10:39 70.2 °F /  21.2 °C 38.8 °F /  3.8 °C 29.7in /  1006.9hPa WSW 5.2mph /  8.4km/h 6.9mph /  11.1km/h 32% 0in /  0.0mm CLR
10:44 70 °F /  21.1 °C 39.6 °F /  4.2 °C 29.7in /  1006.9hPa WSW 5.2mph /  8.4km/h 8.1mph /  13.0km/h 33% 0in /  0.0mm CLR
10:49 70 °F /  21.1 °C 39.6 °F /  4.2 °C 29.7in /  1006.9hPa WSW 4.7mph /  7.6km/h 6.9mph /  11.1km/h 33% 0in /  0.0mm CLR
10:54 69.6 °F /  20.9 °C 39.2 °F /  4.0 °C 29.7in /  1006.9hPa WSW 4.7mph /  7.6km/h 6.9mph /  11.1km/h 33% 0in /  0.0mm CLR
10:59 69.8 °F /  21.0 °C 39.4 °F /  4.1 °C 29.7in /  1006.9hPa NNW 4.7mph /  7.6km/h 5.4mph /  8.7km/h 33% 0in /  0.0mm CLR
11:04 70.2 °F /  21.2 °C 39.7 °F /  4.3 °C 29.7in /  1006.9hPa West 4.7mph /  7.6km/h 5.8mph /  9.3km/h 33% 0in /  0.0mm CLR
11:09 70.2 °F /  21.2 °C 38.8 °F /  3.8 °C 29.7in /  1006.9hPa SSW 3.1mph /  5.0km/h 5.2mph /  8.4km/h 32% 0in /  0.0mm CLR
11:14 70.5 °F /  21.4 °C 39.2 °F /  4.0 °C 29.7in /  1006.9hPa South 3.1mph /  5.0km/h 3.1mph /  5.0km/h 32% 0in /  0.0mm CLR
11:19 70.7 °F /  21.5 °C 39.4 °F /  4.1 °C 29.7in /  1006.9hPa WSW 2.9mph /  4.7km/h 4.6mph /  7.4km/h 32% 0in /  0.0mm CLR
11:24 70.9 °F /  21.6 °C 39.6 °F /  4.2 °C 29.7in /  1006.9hPa West 2.9mph /  4.7km/h 6.9mph /  11.1km/h 32% 0in /  0.0mm CLR
11:29 71.2 °F /  21.8 °C 39 °F /  3.9 °C 29.7in /  1006.9hPa NW 3.1mph /  5.0km/h 3.5mph /  5.6km/h 31% 0in /  0.0mm CLR
11:34 72 °F /  22.2 °C 39.7 °F /  4.3 °C 29.7in /  1006.8hPa ESE 3.1mph /  5.0km/h 3.5mph /  5.6km/h 31% 0in /  0.0mm CLR
11:39 72.7 °F /  22.6 °C 38.7 °F /  3.7 °C 29.7in /  1006.8hPa NNW 1.8mph /  2.9km/h 10.4mph /  16.7km/h 29% 0in /  0.0mm CLR
11:44 72.7 °F /  22.6 °C 38.7 °F /  3.7 °C 29.7in /  1006.8hPa SW 1.8mph /  2.9km/h 6.9mph /  11.1km/h 29% 0in /  0.0mm CLR
11:49 72.3 °F /  22.4 °C 38.3 °F /  3.5 °C 29.7in /  1006.7hPa SW 5.4mph /  8.7km/h 8.1mph /  13.0km/h 29% 0in /  0.0mm CLR
11:54 72.3 °F /  22.4 °C 38.3 °F /  3.5 °C 29.7in /  1006.7hPa NNW 5.4mph /  8.7km/h 8.1mph /  13.0km/h 29% 0in /  0.0mm CLR
11:59 72 °F /  22.2 °C 37.9 °F /  3.3 °C 29.7in /  1006.7hPa WNW 7.4mph /  11.9km/h 8.1mph /  13.0km/h 29% 0in /  0.0mm CLR
12:04 72.1 °F /  22.3 °C 38.1 °F /  3.4 °C 29.7in /  1006.8hPa SW 7.4mph /  11.9km/h 15mph /  24.1km/h 29% 0in /  0.0mm CLR
12:09 72.1 °F /  22.3 °C 38.1 °F /  3.4 °C 29.7in /  1006.8hPa South 6.4mph /  10.3km/h 9.2mph /  14.8km/h 29% 0in /  0.0mm CLR
12:14 72.5 °F /  22.5 °C 39.4 °F /  4.1 °C 29.7in /  1006.8hPa West 6.4mph /  10.3km/h 11.5mph /  18.5km/h 30% 0in /  0.0mm CLR
12:19 72.1 °F /  22.3 °C 39 °F /  3.9 °C 29.7in /  1006.8hPa WSW 6.4mph /  10.3km/h 12.7mph /  20.4km/h 30% 0in /  0.0mm CLR
12:24 72.3 °F /  22.4 °C 39 °F /  3.9 °C 29.7in /  1006.8hPa WNW 6.4mph /  10.3km/h 10.4mph /  16.7km/h 30% 0in /  0.0mm CLR
12:29 72.3 °F /  22.4 °C 39 °F /  3.9 °C 29.7in /  1006.8hPa NNW 6.4mph /  10.3km/h 3.6mph /  5.8km/h 30% 0in /  0.0mm CLR
12:34 72.7 °F /  22.6 °C 39.4 °F /  4.1 °C 29.7in /  1006.8hPa NW 6.4mph /  10.3km/h 4.6mph /  7.4km/h 30% 0in /  0.0mm CLR
12:39 72.7 °F /  22.6 °C 38.7 °F /  3.7 °C 29.7in /  1006.8hPa WNW 4.3mph /  6.9km/h 6.9mph /  11.1km/h 29% 0in /  0.0mm CLR
12:44 72.3 °F /  22.4 °C 39 °F /  3.9 °C 29.7in /  1006.8hPa NW 4.3mph /  6.9km/h 4.6mph /  7.4km/h 30% 0in /  0.0mm CLR
12:49 72.5 °F /  22.5 °C 38.5 °F /  3.6 °C 29.7in /  1006.8hPa North 5.2mph /  8.4km/h 8.1mph /  13.0km/h 29% 0in /  0.0mm CLR
12:54 72.7 °F /  22.6 °C 38.7 °F /  3.7 °C 29.7in /  1006.8hPa WNW 5.2mph /  8.4km/h 12.7mph /  20.4km/h 29% 0in /  0.0mm CLR
12:59 72.5 °F /  22.5 °C 39.4 °F /  4.1 °C 29.7in /  1006.8hPa West 4.7mph /  7.6km/h 8.1mph /  13.0km/h 30% 0in /  0.0mm CLR
13:04 73 °F /  22.8 °C 39.7 °F /  4.3 °C 29.7in /  1006.4hPa NW 4.7mph /  7.6km/h 4.3mph /  6.9km/h 30% 0in /  0.0mm CLR
13:09 73.6 °F /  23.1 °C 39.4 °F /  4.1 °C 29.7in /  1006.4hPa NW 3.6mph /  5.8km/h 11.4mph /  18.3km/h 29% 0in /  0.0mm CLR
13:14 73.4 °F /  23.0 °C 38.3 °F /  3.5 °C 29.7in /  1006.4hPa SW 3.6mph /  5.8km/h 10.7mph /  17.2km/h 28% 0in /  0.0mm CLR
13:19 73.2 °F /  22.9 °C 39 °F /  3.9 °C 29.7in /  1006.4hPa South 6.9mph /  11.1km/h 10.4mph /  16.7km/h 29% 0in /  0.0mm CLR
13:24 73.4 °F /  23.0 °C 39.2 °F /  4.0 °C 29.7in /  1006.4hPa WNW 6.9mph /  11.1km/h 17.5mph /  28.2km/h 29% 0in /  0.0mm CLR
13:29 73.6 °F /  23.1 °C 39.4 °F /  4.1 °C 29.7in /  1006.4hPa WNW 7.6mph /  12.2km/h 12.7mph /  20.4km/h 29% 0in /  0.0mm CLR
13:34 73.9 °F /  23.3 °C 38.8 °F /  3.8 °C 29.7in /  1006.3hPa WNW 7.6mph /  12.2km/h 13.8mph /  22.2km/h 28% 0in /  0.0mm CLR
13:39 73.4 °F /  23.0 °C 38.3 °F /  3.5 °C 29.7in /  1006.3hPa NW 7.4mph /  11.9km/h 8.1mph /  13.0km/h 28% 0in /  0.0mm CLR
13:44 73.4 °F /  23.0 °C 38.3 °F /  3.5 °C 29.7in /  1006.3hPa NW 7.4mph /  11.9km/h 8.1mph /  13.0km/h 28% 0in /  0.0mm CLR
13:49 73.8 °F /  23.2 °C 37.8 °F /  3.2 °C 29.7in /  1006.1hPa West 4.7mph /  7.6km/h 10.4mph /  16.7km/h 27% 0in /  0.0mm CLR
13:54 73.8 °F /  23.2 °C 38.7 °F /  3.7 °C 29.7in /  1006.1hPa West 4.7mph /  7.6km/h 9.2mph /  14.8km/h 28% 0in /  0.0mm CLR
13:59 73.8 °F /  23.2 °C 37.8 °F /  3.2 °C 29.7in /  1006.1hPa SE 5.9mph /  9.5km/h 5.8mph /  9.3km/h 27% 0in /  0.0mm CLR
14:04 73.6 °F /  23.1 °C 38.5 °F /  3.6 °C 29.7in /  1006.1hPa NNE 5.9mph /  9.5km/h 10.4mph /  16.7km/h 28% 0in /  0.0mm CLR
14:09 73.8 °F /  23.2 °C 37.8 °F /  3.2 °C 29.7in /  1006.1hPa WNW 5.2mph /  8.4km/h 8.1mph /  13.0km/h 27% 0in /  0.0mm CLR
14:14 73.8 °F /  23.2 °C 37.8 °F /  3.2 °C 29.7in /  1006.1hPa WSW 5.2mph /  8.4km/h 10mph /  16.1km/h 27% 0in /  0.0mm CLR
14:19 74.1 °F /  23.4 °C 37.9 °F /  3.3 °C 29.7in /  1006.0hPa WNW 6.2mph /  10.0km/h 6.9mph /  11.1km/h 27% 0in /  0.0mm CLR
14:24 74.5 °F /  23.6 °C 38.3 °F /  3.5 °C 29.7in /  1006.0hPa West 6.2mph /  10.0km/h 18.4mph /  29.6km/h 27% 0in /  0.0mm CLR
14:29 74.1 °F /  23.4 °C 37.9 °F /  3.3 °C 29.7in /  1006.0hPa NW 8.5mph /  13.7km/h 11.5mph /  18.5km/h 27% 0in /  0.0mm CLR
14:34 73.9 °F /  23.3 °C 37.8 °F /  3.2 °C 29.7in /  1006.1hPa ENE 8.5mph /  13.7km/h 9.2mph /  14.8km/h 27% 0in /  0.0mm CLR
14:39 73.8 °F /  23.2 °C 37.8 °F /  3.2 °C 29.7in /  1006.1hPa West 6.9mph /  11.1km/h 4.6mph /  7.4km/h 27% 0in /  0.0mm CLR
14:44 74.1 °F /  23.4 °C 37.9 °F /  3.3 °C 29.7in /  1006.1hPa WNW 6.9mph /  11.1km/h 9.2mph /  14.8km/h 27% 0in /  0.0mm CLR
14:49 74.5 °F /  23.6 °C 37.2 °F /  2.9 °C 29.7in /  1006.0hPa NNW 6.2mph /  10.0km/h 8.1mph /  13.0km/h 26% 0in /  0.0mm CLR
14:54 74.3 °F /  23.5 °C 38.1 °F /  3.4 °C 29.7in /  1006.0hPa NW 6.2mph /  10.0km/h 10.4mph /  16.7km/h 27% 0in /  0.0mm CLR
14:59 74.1 °F /  23.4 °C 37.9 °F /  3.3 °C 29.7in /  1006.0hPa WNW 6.4mph /  10.3km/h 17.3mph /  27.8km/h 27% 0in /  0.0mm CLR
15:04 73.9 °F /  23.3 °C 37.8 °F /  3.2 °C 29.7in /  1005.8hPa West 6.4mph /  10.3km/h 8.1mph /  13.0km/h 27% 0in /  0.0mm CLR
15:09 74.1 °F /  23.4 °C 37.9 °F /  3.3 °C 29.7in /  1005.8hPa NW 6.4mph /  10.3km/h 6.2mph /  10.0km/h 27% 0in /  0.0mm CLR
15:14 74.5 °F /  23.6 °C 37.2 °F /  2.9 °C 29.7in /  1005.8hPa NW 6.4mph /  10.3km/h 8.1mph /  13.0km/h 26% 0in /  0.0mm CLR
15:19 74.7 °F /  23.7 °C 37.6 °F /  3.1 °C 29.7in /  1005.5hPa WNW 4.3mph /  6.9km/h 8.1mph /  13.0km/h 26% 0in /  0.0mm CLR
15:24 74.5 °F /  23.6 °C 37.2 °F /  2.9 °C 29.7in /  1005.5hPa NNW 4.3mph /  6.9km/h 7.6mph /  12.2km/h 26% 0in /  0.0mm CLR
15:29 74.5 °F /  23.6 °C 37.2 °F /  2.9 °C 29.7in /  1005.5hPa NNW 5.9mph /  9.5km/h 11.8mph /  19.0km/h 26% 0in /  0.0mm CLR
15:34 74.3 °F /  23.5 °C 38.1 °F /  3.4 °C 29.7in /  1005.8hPa WNW 5.9mph /  9.5km/h 10.4mph /  16.7km/h 27% 0in /  0.0mm CLR
15:39 73.9 °F /  23.3 °C 36.9 °F /  2.7 °C 29.7in /  1005.8hPa WNW 8.7mph /  14.0km/h 10.4mph /  16.7km/h 26% 0in /  0.0mm CLR
15:44 73.9 °F /  23.3 °C 37.8 °F /  3.2 °C 29.7in /  1005.8hPa NW 8.7mph /  14.0km/h 8.1mph /  13.0km/h 27% 0in /  0.0mm CLR
15:49 73.9 °F /  23.3 °C 36.9 °F /  2.7 °C 29.7in /  1005.6hPa West 5.9mph /  9.5km/h 4.6mph /  7.4km/h 26% 0in /  0.0mm CLR
15:54 74.1 °F /  23.4 °C 37 °F /  2.8 °C 29.7in /  1005.6hPa WNW 5.9mph /  9.5km/h 6.4mph /  10.3km/h 26% 0in /  0.0mm CLR
15:57 74.1 °F /  23.4 °C 37 °F /  2.8 °C 29.7in /  1005.6hPa West 5.9mph /  9.5km/h 4.6mph /  7.4km/h 26% 0in /  0.0mm CLR
17:09 72.9 °F /  22.7 °C 50.9 °F /  10.5 °C 29.7in /  1005.1hPa East 4.7mph /  7.6km/h 6.9mph /  11.1km/h 46% 0in /  0.0mm CLR
17:14 72.1 °F /  22.3 °C 50.7 °F /  10.4 °C 29.7in /  1005.1hPa NE 4.7mph /  7.6km/h 6.9mph /  11.1km/h 47% 0in /  0.0mm CLR
17:19 72 °F /  22.2 °C 50 °F /  10.0 °C 29.7in /  1005.4hPa ESE 5.4mph /  8.7km/h 6.9mph /  11.1km/h 46% 0in /  0.0mm CLR
17:24 72.1 °F /  22.3 °C 48.9 °F /  9.4 °C 29.7in /  1005.4hPa ENE 5.4mph /  8.7km/h 10.4mph /  16.7km/h 44% 0in /  0.0mm CLR
17:29 72.3 °F /  22.4 °C 48.6 °F /  9.2 °C 29.7in /  1005.4hPa NNE 5.4mph /  8.7km/h 4.6mph /  7.4km/h 43% 0in /  0.0mm CLR
17:34 72.3 °F /  22.4 °C 48.6 °F /  9.2 °C 29.7in /  1005.4hPa NE 5.4mph /  8.7km/h 5.2mph /  8.4km/h 43% 0in /  0.0mm CLR
17:39 72.7 °F /  22.6 °C 48.4 °F /  9.1 °C 29.7in /  1005.4hPa NNE 4mph /  6.4km/h 5.8mph /  9.3km/h 42% 0in /  0.0mm CLR
17:44 72.9 °F /  22.7 °C 48.4 °F /  9.1 °C 29.7in /  1005.4hPa ENE 4mph /  6.4km/h 9.2mph /  14.8km/h 42% 0in /  0.0mm CLR
17:49 72.7 °F /  22.6 °C 48.4 °F /  9.1 °C 29.7in /  1005.5hPa ENE 5.2mph /  8.4km/h 10.4mph /  16.7km/h 42% 0in /  0.0mm CLR
17:54 72.7 °F /  22.6 °C 48.4 °F /  9.1 °C 29.7in /  1005.5hPa ENE 5.2mph /  8.4km/h 6.9mph /  11.1km/h 42% 0in /  0.0mm CLR
17:59 72.7 °F /  22.6 °C 49.5 °F /  9.7 °C 29.7in /  1005.5hPa ENE 4.3mph /  6.9km/h 10.4mph /  16.7km/h 44% 0in /  0.0mm CLR
18:04 72.3 °F /  22.4 °C 50.4 °F /  10.2 °C 29.7in /  1005.7hPa NE 4.3mph /  6.9km/h 11.8mph /  19.0km/h 46% 0in /  0.0mm CLR
18:09 72.1 °F /  22.3 °C 50.2 °F /  10.1 °C 29.7in /  1005.7hPa North 8.1mph /  13.0km/h 12.7mph /  20.4km/h 46% 0in /  0.0mm CLR
18:14 72 °F /  22.2 °C 51.8 °F /  11.0 °C 29.7in /  1005.7hPa NE 8.1mph /  13.0km/h 11.5mph /  18.5km/h 49% 0in /  0.0mm CLR
18:19 71.8 °F /  22.1 °C 52.7 °F /  11.5 °C 29.7in /  1005.8hPa NE 8.5mph /  13.7km/h 12.3mph /  19.8km/h 51% 0in /  0.0mm CLR
18:24 71.4 °F /  21.9 °C 52.3 °F /  11.3 °C 29.7in /  1005.8hPa NE 8.5mph /  13.7km/h 10.4mph /  16.7km/h 51% 0in /  0.0mm CLR
18:29 71.4 °F /  21.9 °C 52.9 °F /  11.6 °C 29.7in /  1005.8hPa NE 8.5mph /  13.7km/h 11.5mph /  18.5km/h 52% 0in /  0.0mm CLR
18:34 71.1 °F /  21.7 °C 54.1 °F /  12.3 °C 29.7in /  1006.1hPa NNE 8.5mph /  13.7km/h 13mph /  20.9km/h 55% 0in /  0.0mm CLR
18:39 70.5 °F /  21.4 °C 53.6 °F /  12.0 °C 29.7in /  1006.1hPa NE 9.7mph /  15.6km/h 15mph /  24.1km/h 55% 0in /  0.0mm CLR
18:44 70.7 °F /  21.5 °C 53.8 °F /  12.1 °C 29.7in /  1006.1hPa North 9.7mph /  15.6km/h 11.5mph /  18.5km/h 55% 0in /  0.0mm CLR
18:49 70.7 °F /  21.5 °C 51.1 °F /  10.6 °C 29.7in /  1006.1hPa NE 8.1mph /  13.0km/h 12.7mph /  20.4km/h 50% 0in /  0.0mm CLR
18:54 71.1 °F /  21.7 °C 52.5 °F /  11.4 °C 29.7in /  1006.1hPa NE 8.1mph /  13.0km/h 12.7mph /  20.4km/h 52% 0in /  0.0mm CLR
18:59 71.1 °F /  21.7 °C 54.1 °F /  12.3 °C 29.7in /  1006.1hPa East 8.1mph /  13.0km/h 6.9mph /  11.1km/h 55% 0in /  0.0mm CLR
19:04 70.9 °F /  21.6 °C 54.9 °F /  12.7 °C 29.7in /  1006.2hPa NE 8.1mph /  13.0km/h 10.4mph /  16.7km/h 57% 0in /  0.0mm CLR
19:09 70.3 °F /  21.3 °C 54 °F /  12.2 °C 29.7in /  1006.2hPa NE 6.9mph /  11.1km/h 12.7mph /  20.4km/h 56% 0in /  0.0mm CLR
19:14 70.5 °F /  21.4 °C 53.1 °F /  11.7 °C 29.7in /  1006.2hPa NE 6.9mph /  11.1km/h 11.5mph /  18.5km/h 54% 0in /  0.0mm CLR
19:19 70.7 °F /  21.5 °C 52.7 °F /  11.5 °C 29.7in /  1006.2hPa ENE 7.6mph /  12.2km/h 8.1mph /  13.0km/h 53% 0in /  0.0mm CLR
19:24 70.7 °F /  21.5 °C 54.7 °F /  12.6 °C 29.7in /  1006.2hPa ENE 7.6mph /  12.2km/h 6.9mph /  11.1km/h 57% 0in /  0.0mm CLR
19:29 70.5 °F /  21.4 °C 55 °F /  12.8 °C 29.7in /  1006.2hPa NNE 6.2mph /  10.0km/h 11.4mph /  18.3km/h 58% 0in /  0.0mm CLR
19:34 70.2 °F /  21.2 °C 53.8 °F /  12.1 °C 29.7in /  1006.3hPa NNE 6.2mph /  10.0km/h 12.7mph /  20.4km/h 56% 0in /  0.0mm CLR
19:39 70.3 °F /  21.3 °C 52.3 °F /  11.3 °C 29.7in /  1006.3hPa NE 8.7mph /  14.0km/h 9.2mph /  14.8km/h 53% 0in /  0.0mm CLR
19:44 70.5 °F /  21.4 °C 53.1 °F /  11.7 °C 29.7in /  1006.3hPa NE 8.7mph /  14.0km/h 6.9mph /  11.1km/h 54% 0in /  0.0mm CLR
19:49 70.5 °F /  21.4 °C 53.6 °F /  12.0 °C 29.7in /  1006.5hPa NE 6.2mph /  10.0km/h 7.6mph /  12.2km/h 55% 0in /  0.0mm CLR
19:54 70.3 °F /  21.3 °C 55.2 °F /  12.9 °C 29.7in /  1006.5hPa NNE 6.2mph /  10.0km/h 12.7mph /  20.4km/h 59% 0in /  0.0mm CLR
19:59 70.2 °F /  21.2 °C 56.1 °F /  13.4 °C 29.7in /  1006.5hPa NE 8.1mph /  13.0km/h 11.5mph /  18.5km/h 61% 0in /  0.0mm CLR
20:04 70 °F /  21.1 °C 56.5 °F /  13.6 °C 29.7in /  1006.8hPa NNE 8.1mph /  13.0km/h 13mph /  20.9km/h 62% 0in /  0.0mm CLR
20:09 69.6 °F /  20.9 °C 56.5 °F /  13.6 °C 29.7in /  1006.8hPa NNE 8.5mph /  13.7km/h 13.8mph /  22.2km/h 63% 0in /  0.0mm CLR
20:14 69.3 °F /  20.7 °C 56.1 °F /  13.4 °C 29.7in /  1006.8hPa NNE 8.5mph /  13.7km/h 12.7mph /  20.4km/h 63% 0in /  0.0mm CLR
20:19 69.3 °F /  20.7 °C 56.1 °F /  13.4 °C 29.7in /  1006.9hPa NE 8.7mph /  14.0km/h 12.3mph /  19.8km/h 63% 0in /  0.0mm CLR
20:24 68.9 °F /  20.5 °C 56.1 °F /  13.4 °C 29.7in /  1006.9hPa NE 8.7mph /  14.0km/h 11.5mph /  18.5km/h 64% 0in /  0.0mm CLR
20:29 68.7 °F /  20.4 °C 56.5 °F /  13.6 °C 29.7in /  1006.9hPa NE 8.7mph /  14.0km/h 11.5mph /  18.5km/h 65% 0in /  0.0mm CLR
20:34 68.4 °F /  20.2 °C 56.1 °F /  13.4 °C 29.7in /  1007.0hPa NE 8.7mph /  14.0km/h 15mph /  24.1km/h 65% 0in /  0.0mm CLR
20:39 68.4 °F /  20.2 °C 56.7 °F /  13.7 °C 29.7in /  1007.0hPa NNE 8.7mph /  14.0km/h 10.4mph /  16.7km/h 66% 0in /  0.0mm CLR
20:44 68 °F /  20.0 °C 56.7 °F /  13.7 °C 29.7in /  1007.0hPa NNE 8.7mph /  14.0km/h 15.2mph /  24.5km/h 67% 0in /  0.0mm CLR
20:49 67.6 °F /  19.8 °C 56.7 °F /  13.7 °C 29.7in /  1007.3hPa NE 9.2mph /  14.8km/h 11.8mph /  19.0km/h 68% 0in /  0.0mm CLR
20:54 67.5 °F /  19.7 °C 56.5 °F /  13.6 °C 29.7in /  1007.3hPa NE 9.2mph /  14.8km/h 8.7mph /  14.0km/h 68% 0in /  0.0mm CLR
20:59 67.3 °F /  19.6 °C 56.8 °F /  13.8 °C 29.7in /  1007.3hPa NW 8.1mph /  13.0km/h 10.4mph /  16.7km/h 69% 0in /  0.0mm CLR
21:04 66.7 °F /  19.3 °C 56.7 °F /  13.7 °C 29.8in /  1007.4hPa North 8.1mph /  13.0km/h 12.7mph /  20.4km/h 70% 0in /  0.0mm CLR
21:09 66.6 °F /  19.2 °C 56.8 °F /  13.8 °C 29.8in /  1007.4hPa NE 8.1mph /  13.0km/h 8.7mph /  14.0km/h 71% 0in /  0.0mm CLR
21:14 66.4 °F /  19.1 °C 56.7 °F /  13.7 °C 29.8in /  1007.4hPa NE 8.1mph /  13.0km/h 10.4mph /  16.7km/h 71% 0in /  0.0mm CLR
21:19 66.2 °F /  19.0 °C 56.8 °F /  13.8 °C 29.8in /  1007.6hPa NE 6.4mph /  10.3km/h 10.7mph /  17.2km/h 72% 0in /  0.0mm CLR
21:24 66 °F /  18.9 °C 57 °F /  13.9 °C 29.8in /  1007.6hPa NE 6.4mph /  10.3km/h 10.4mph /  16.7km/h 73% 0in /  0.0mm CLR
21:29 65.7 °F /  18.7 °C 56.8 °F /  13.8 °C 29.8in /  1007.6hPa NNE 7.4mph /  11.9km/h 11.5mph /  18.5km/h 73% 0in /  0.0mm CLR
21:34 65.7 °F /  18.7 °C 57 °F /  13.9 °C 29.8in /  1007.9hPa NE 7.4mph /  11.9km/h 10mph /  16.1km/h 74% 0in /  0.0mm CLR
21:39 65.3 °F /  18.5 °C 56.8 °F /  13.8 °C 29.8in /  1007.9hPa ENE 6.9mph /  11.1km/h 10.7mph /  17.2km/h 74% 0in /  0.0mm CLR
21:44 65.1 °F /  18.4 °C 57 °F /  13.9 °C 29.8in /  1007.9hPa NNE 6.9mph /  11.1km/h 10.4mph /  16.7km/h 75% 0in /  0.0mm CLR
21:49 64.9 °F /  18.3 °C 56.8 °F /  13.8 °C 29.8in /  1008.0hPa NE 8.1mph /  13.0km/h 9.2mph /  14.8km/h 75% 0in /  0.0mm CLR
21:54 64.8 °F /  18.2 °C 56.7 °F /  13.7 °C 29.8in /  1008.0hPa North 8.1mph /  13.0km/h 9.2mph /  14.8km/h 75% 0in /  0.0mm CLR
21:59 64.6 °F /  18.1 °C 56.5 °F /  13.6 °C 29.8in /  1008.0hPa North 8.1mph /  13.0km/h 11.5mph /  18.5km/h 75% 0in /  0.0mm CLR
22:04 64.4 °F /  18.0 °C 56.7 °F /  13.7 °C 29.8in /  1008.4hPa North 8.1mph /  13.0km/h 11.8mph /  19.0km/h 76% 0in /  0.0mm CLR
22:09 64.2 °F /  17.9 °C 56.5 °F /  13.6 °C 29.8in /  1008.4hPa ENE 8.7mph /  14.0km/h 10.4mph /  16.7km/h 76% 0in /  0.0mm CLR
22:14 64.2 °F /  17.9 °C 56.5 °F /  13.6 °C 29.8in /  1008.4hPa NE 8.7mph /  14.0km/h 11.5mph /  18.5km/h 76% 0in /  0.0mm CLR
22:19 64 °F /  17.8 °C 56.3 °F /  13.5 °C 29.8in /  1008.5hPa NNE 7.6mph /  12.2km/h 13.8mph /  22.2km/h 76% 0in /  0.0mm CLR
22:24 64 °F /  17.8 °C 56.3 °F /  13.5 °C 29.8in /  1008.5hPa NE 7.6mph /  12.2km/h 8.1mph /  13.0km/h 76% 0in /  0.0mm CLR
22:29 63.9 °F /  17.7 °C 56.5 °F /  13.6 °C 29.8in /  1008.5hPa NE 7.4mph /  11.9km/h 10.4mph /  16.7km/h 77% 0in /  0.0mm CLR
22:34 63.7 °F /  17.6 °C 56.3 °F /  13.5 °C 29.8in /  1008.8hPa NE 7.4mph /  11.9km/h 10.4mph /  16.7km/h 77% 0in /  0.0mm CLR
22:39 63.7 °F /  17.6 °C 56.3 °F /  13.5 °C 29.8in /  1008.8hPa NE 6.4mph /  10.3km/h 9.2mph /  14.8km/h 77% 0in /  0.0mm CLR
22:44 63.3 °F /  17.4 °C 56.3 °F /  13.5 °C 29.8in /  1008.8hPa NE 6.4mph /  10.3km/h 9.2mph /  14.8km/h 78% 0in /  0.0mm CLR
22:49 63.3 °F /  17.4 °C 56.3 °F /  13.5 °C 29.8in /  1009.0hPa NE 6.4mph /  10.3km/h 9.2mph /  14.8km/h 78% 0in /  0.0mm CLR
22:54 63.3 °F /  17.4 °C 56.3 °F /  13.5 °C 29.8in /  1009.0hPa NNE 6.4mph /  10.3km/h 8.1mph /  13.0km/h 78% 0in /  0.0mm CLR
22:59 63.1 °F /  17.3 °C 56.1 °F /  13.4 °C 29.8in /  1009.0hPa NE 6.4mph /  10.3km/h 9.2mph /  14.8km/h 78% 0in /  0.0mm CLR
23:04 63.1 °F /  17.3 °C 56.5 °F /  13.6 °C 29.8in /  1009.1hPa ENE 6.4mph /  10.3km/h 8.1mph /  13.0km/h 79% 0in /  0.0mm CLR
23:09 63 °F /  17.2 °C 56.3 °F /  13.5 °C 29.8in /  1009.1hPa NNE 6.4mph /  10.3km/h 8.1mph /  13.0km/h 79% 0in /  0.0mm CLR
23:14 63 °F /  17.2 °C 56.3 °F /  13.5 °C 29.8in /  1009.1hPa North 6.4mph /  10.3km/h 5.8mph /  9.3km/h 79% 0in /  0.0mm CLR
23:19 62.6 °F /  17.0 °C 56.3 °F /  13.5 °C 29.8in /  1009.2hPa ESE 4.7mph /  7.6km/h 9.2mph /  14.8km/h 80% 0in /  0.0mm CLR
23:24 62.8 °F /  17.1 °C 56.5 °F /  13.6 °C 29.8in /  1009.2hPa NE 4.7mph /  7.6km/h 8.1mph /  13.0km/h 80% 0in /  0.0mm CLR
23:29 62.8 °F /  17.1 °C 56.5 °F /  13.6 °C 29.8in /  1009.2hPa NE 5.9mph /  9.5km/h 8.1mph /  13.0km/h 80% 0in /  0.0mm CLR
23:34 62.6 °F /  17.0 °C 56.3 °F /  13.5 °C 29.8in /  1009.2hPa ENE 5.9mph /  9.5km/h 6.9mph /  11.1km/h 80% 0in /  0.0mm CLR
23:39 62.4 °F /  16.9 °C 56.1 °F /  13.4 °C 29.8in /  1009.2hPa NE 4.3mph /  6.9km/h 5.8mph /  9.3km/h 80% 0in /  0.0mm CLR
23:44 62.4 °F /  16.9 °C 56.1 °F /  13.4 °C 29.8in /  1009.2hPa NE 4.3mph /  6.9km/h 4.7mph /  7.6km/h 80% 0in /  0.0mm CLR
23:49 62.4 °F /  16.9 °C 56.1 °F /  13.4 °C 29.8in /  1009.2hPa NE 4mph /  6.4km/h 3.5mph /  5.6km/h 80% 0in /  0.0mm CLR
23:54 62.4 °F /  16.9 °C 56.1 °F /  13.4 °C 29.8in /  1009.2hPa NNW 4mph /  6.4km/h 4.6mph /  7.4km/h 80% 0in /  0.0mm CLR
23:59 62.4 °F /  16.9 °C 56.1 °F /  13.4 °C 29.8in /  1009.2hPa East 1.8mph /  2.9km/h 3.1mph /  5.0km/h 80% 0in /  0.0mm CLR
Murcia-Puente Tocinos, España
Compliments of Weather Underground - 2.5 mb

La estación de MeteoMurcia.com, publica sus datos en los siguientes proyectos:

Weather Underground PWS IMURCIAP2 Meteoclimatic www.awekas.at

W3Counter
Web Analytics